sensor_id;sensor_type;location;lat;lon;timestamp;temperature;humidity
15959;DHT22;8078;47.822;9.402;2022-12-08T00:00:44;0.10;99.90
15959;DHT22;8078;47.822;9.402;2022-12-08T00:03:10;0.10;99.90
15959;DHT22;8078;47.822;9.402;2022-12-08T00:05:35;0.10;99.90
15959;DHT22;8078;47.822;9.402;2022-12-08T00:08:19;0.10;99.90
15959;DHT22;8078;47.822;9.402;2022-12-08T00:11:03;0.10;99.90
15959;DHT22;8078;47.822;9.402;2022-12-08T00:13:29;0.10;99.90
15959;DHT22;8078;47.822;9.402;2022-12-08T00:16:02;0.10;99.90
15959;DHT22;8078;47.822;9.402;2022-12-08T00:18:27;0.00;99.90
15959;DHT22;8078;47.822;9.402;2022-12-08T00:20:57;0.10;99.90
15959;DHT22;8078;47.822;9.402;2022-12-08T00:23:23;0.00;99.90
15959;DHT22;8078;47.822;9.402;2022-12-08T00:25:48;0.00;99.90
15959;DHT22;8078;47.822;9.402;2022-12-08T00:28:14;0.00;99.90
15959;DHT22;8078;47.822;9.402;2022-12-08T00:30:40;0.00;99.90
15959;DHT22;8078;47.822;9.402;2022-12-08T00:33:05;0.00;99.90
15959;DHT22;8078;47.822;9.402;2022-12-08T00:35:31;0.00;99.90
15959;DHT22;8078;47.822;9.402;2022-12-08T00:37:57;0.00;99.90
15959;DHT22;8078;47.822;9.402;2022-12-08T00:40:22;0.00;99.90
15959;DHT22;8078;47.822;9.402;2022-12-08T00:42:48;0.00;99.90
15959;DHT22;8078;47.822;9.402;2022-12-08T00:45:13;-0.10;99.90
15959;DHT22;8078;47.822;9.402;2022-12-08T00:47:39;-0.10;99.90
15959;DHT22;8078;47.822;9.402;2022-12-08T00:50:06;-0.20;99.90
15959;DHT22;8078;47.822;9.402;2022-12-08T00:52:32;-0.20;99.90
15959;DHT22;8078;47.822;9.402;2022-12-08T00:54:57;-0.30;99.90
15959;DHT22;8078;47.822;9.402;2022-12-08T00:57:23;-0.30;99.90
15959;DHT22;8078;47.822;9.402;2022-12-08T00:59:49;-0.30;99.90
15959;DHT22;8078;47.822;9.402;2022-12-08T01:02:14;-0.30;99.90
15959;DHT22;8078;47.822;9.402;2022-12-08T01:04:40;-0.30;99.90
15959;DHT22;8078;47.822;9.402;2022-12-08T01:07:06;-0.30;99.90
15959;DHT22;8078;47.822;9.402;2022-12-08T01:09:32;-0.30;99.90
15959;DHT22;8078;47.822;9.402;2022-12-08T01:11:58;-0.30;99.90
15959;DHT22;8078;47.822;9.402;2022-12-08T01:14:23;-0.30;99.90
15959;DHT22;8078;47.822;9.402;2022-12-08T01:16:49;-0.30;99.90
15959;DHT22;8078;47.822;9.402;2022-12-08T01:19:15;-0.30;99.90
15959;DHT22;8078;47.822;9.402;2022-12-08T01:21:42;-0.20;99.90
15959;DHT22;8078;47.822;9.402;2022-12-08T01:24:13;-0.20;99.90
15959;DHT22;8078;47.822;9.402;2022-12-08T01:26:39;-0.30;99.90
15959;DHT22;8078;47.822;9.402;2022-12-08T01:29:05;-0.30;99.90
15959;DHT22;8078;47.822;9.402;2022-12-08T01:31:30;-0.30;99.90
15959;DHT22;8078;47.822;9.402;2022-12-08T01:33:56;-0.30;99.90
15959;DHT22;8078;47.822;9.402;2022-12-08T01:36:25;-0.30;99.90
15959;DHT22;8078;47.822;9.402;2022-12-08T01:38:52;-0.30;99.90
15959;DHT22;8078;47.822;9.402;2022-12-08T01:41:20;-0.30;99.90
15959;DHT22;8078;47.822;9.402;2022-12-08T01:46:28;-0.20;99.90
15959;DHT22;8078;47.822;9.402;2022-12-08T01:49:00;-0.20;99.90
15959;DHT22;8078;47.822;9.402;2022-12-08T01:51:28;-0.20;99.90
15959;DHT22;8078;47.822;9.402;2022-12-08T01:53:55;-0.20;99.90
15959;DHT22;8078;47.822;9.402;2022-12-08T01:56:29;-0.10;99.90
15959;DHT22;8078;47.822;9.402;2022-12-08T01:58:57;0.00;99.90
15959;DHT22;8078;47.822;9.402;2022-12-08T02:01:23;0.00;99.90
15959;DHT22;8078;47.822;9.402;2022-12-08T02:04:00;0.00;99.90
15959;DHT22;8078;47.822;9.402;2022-12-08T02:06:27;0.00;99.90
15959;DHT22;8078;47.822;9.402;2022-12-08T02:08:55;0.00;99.90
15959;DHT22;8078;47.822;9.402;2022-12-08T02:11:21;0.00;99.90
15959;DHT22;8078;47.822;9.402;2022-12-08T02:13:47;-0.10;99.90
15959;DHT22;8078;47.822;9.402;2022-12-08T02:19:03;0.00;99.90
15959;DHT22;8078;47.822;9.402;2022-12-08T02:22:11;0.10;99.90
15959;DHT22;8078;47.822;9.402;2022-12-08T02:35:10;0.10;99.90
15959;DHT22;8078;47.822;9.402;2022-12-08T02:37:42;0.10;99.90
15959;DHT22;8078;47.822;9.402;2022-12-08T02:40:20;0.10;99.90
15959;DHT22;8078;47.822;9.402;2022-12-08T02:42:56;0.00;99.90
15959;DHT22;8078;47.822;9.402;2022-12-08T02:45:44;0.00;99.90
15959;DHT22;8078;47.822;9.402;2022-12-08T02:48:11;-0.10;99.90
15959;DHT22;8078;47.822;9.402;2022-12-08T02:50:37;-0.10;99.90
15959;DHT22;8078;47.822;9.402;2022-12-08T02:53:03;-0.10;99.90
15959;DHT22;8078;47.822;9.402;2022-12-08T02:58:33;-0.10;99.90
15959;DHT22;8078;47.822;9.402;2022-12-08T03:04:16;-0.10;99.90
15959;DHT22;8078;47.822;9.402;2022-12-08T03:07:04;-0.10;99.90
15959;DHT22;8078;47.822;9.402;2022-12-08T03:09:38;-0.10;99.90
15959;DHT22;8078;47.822;9.402;2022-12-08T03:14:34;-0.20;99.90
15959;DHT22;8078;47.822;9.402;2022-12-08T03:17:01;-0.30;99.90
15959;DHT22;8078;47.822;9.402;2022-12-08T03:19:33;-0.30;99.90
15959;DHT22;8078;47.822;9.402;2022-12-08T03:22:00;-0.30;99.90
15959;DHT22;8078;47.822;9.402;2022-12-08T03:24:36;-0.30;99.90
15959;DHT22;8078;47.822;9.402;2022-12-08T03:27:07;-0.30;99.90
15959;DHT22;8078;47.822;9.402;2022-12-08T03:29:33;-0.30;99.90
15959;DHT22;8078;47.822;9.402;2022-12-08T03:32:08;-0.30;99.90
15959;DHT22;8078;47.822;9.402;2022-12-08T03:34:39;-0.30;99.90
15959;DHT22;8078;47.822;9.402;2022-12-08T03:37:06;-0.30;99.90
15959;DHT22;8078;47.822;9.402;2022-12-08T03:39:31;-0.40;99.90
15959;DHT22;8078;47.822;9.402;2022-12-08T03:41:57;-0.40;99.90
15959;DHT22;8078;47.822;9.402;2022-12-08T03:44:23;-0.40;99.90
15959;DHT22;8078;47.822;9.402;2022-12-08T03:46:48;-0.40;99.90
15959;DHT22;8078;47.822;9.402;2022-12-08T03:49:14;-0.40;99.90
15959;DHT22;8078;47.822;9.402;2022-12-08T03:51:39;-0.40;99.90
15959;DHT22;8078;47.822;9.402;2022-12-08T03:54:05;-0.50;99.90
15959;DHT22;8078;47.822;9.402;2022-12-08T03:56:34;-0.50;99.90
15959;DHT22;8078;47.822;9.402;2022-12-08T03:59:00;-0.50;99.90
15959;DHT22;8078;47.822;9.402;2022-12-08T04:01:26;-0.50;99.90
15959;DHT22;8078;47.822;9.402;2022-12-08T04:03:52;-0.50;99.90
15959;DHT22;8078;47.822;9.402;2022-12-08T04:06:19;-0.50;99.90
15959;DHT22;8078;47.822;9.402;2022-12-08T04:08:45;-0.40;99.90
15959;DHT22;8078;47.822;9.402;2022-12-08T04:11:11;-0.40;99.90
15959;DHT22;8078;47.822;9.402;2022-12-08T04:13:38;-0.40;99.90
15959;DHT22;8078;47.822;9.402;2022-12-08T04:16:05;-0.40;99.90
15959;DHT22;8078;47.822;9.402;2022-12-08T04:18:31;-0.40;99.90
15959;DHT22;8078;47.822;9.402;2022-12-08T04:20:57;-0.40;99.90
15959;DHT22;8078;47.822;9.402;2022-12-08T04:23:23;-0.40;99.90
15959;DHT22;8078;47.822;9.402;2022-12-08T04:25:50;-0.30;99.90
15959;DHT22;8078;47.822;9.402;2022-12-08T04:28:16;-0.30;99.90
15959;DHT22;8078;47.822;9.402;2022-12-08T04:30:41;-0.30;99.90
15959;DHT22;8078;47.822;9.402;2022-12-08T04:33:07;-0.30;99.90
15959;DHT22;8078;47.822;9.402;2022-12-08T04:35:32;-0.30;99.90
15959;DHT22;8078;47.822;9.402;2022-12-08T04:37:58;-0.30;99.90
15959;DHT22;8078;47.822;9.402;2022-12-08T04:40:24;-0.30;99.90
15959;DHT22;8078;47.822;9.402;2022-12-08T04:42:49;-0.30;99.90
15959;DHT22;8078;47.822;9.402;2022-12-08T04:45:15;-0.30;99.90
15959;DHT22;8078;47.822;9.402;2022-12-08T04:47:41;-0.30;99.90
15959;DHT22;8078;47.822;9.402;2022-12-08T04:50:07;-0.20;99.90
15959;DHT22;8078;47.822;9.402;2022-12-08T04:52:33;-0.20;99.90
15959;DHT22;8078;47.822;9.402;2022-12-08T04:54:59;-0.20;99.90
15959;DHT22;8078;47.822;9.402;2022-12-08T04:57:24;-0.20;99.90
15959;DHT22;8078;47.822;9.402;2022-12-08T04:59:50;-0.20;99.90
15959;DHT22;8078;47.822;9.402;2022-12-08T05:02:15;-0.30;99.90
15959;DHT22;8078;47.822;9.402;2022-12-08T05:04:41;-0.30;99.90
15959;DHT22;8078;47.822;9.402;2022-12-08T05:07:06;-0.30;99.90
15959;DHT22;8078;47.822;9.402;2022-12-08T05:09:32;-0.30;99.90
15959;DHT22;8078;47.822;9.402;2022-12-08T05:11:57;-0.30;99.90
15959;DHT22;8078;47.822;9.402;2022-12-08T05:14:23;-0.30;99.90
15959;DHT22;8078;47.822;9.402;2022-12-08T05:16:49;-0.30;99.90
15959;DHT22;8078;47.822;9.402;2022-12-08T05:19:15;-0.30;99.90
15959;DHT22;8078;47.822;9.402;2022-12-08T05:21:41;-0.40;99.90
15959;DHT22;8078;47.822;9.402;2022-12-08T05:24:06;-0.40;99.90
15959;DHT22;8078;47.822;9.402;2022-12-08T05:26:32;-0.40;99.90
15959;DHT22;8078;47.822;9.402;2022-12-08T05:28:58;-0.40;99.90
15959;DHT22;8078;47.822;9.402;2022-12-08T05:31:23;-0.40;99.90
15959;DHT22;8078;47.822;9.402;2022-12-08T05:33:50;-0.40;99.90
15959;DHT22;8078;47.822;9.402;2022-12-08T05:36:16;-0.40;99.90
15959;DHT22;8078;47.822;9.402;2022-12-08T05:38:42;-0.40;99.90
15959;DHT22;8078;47.822;9.402;2022-12-08T05:41:10;-0.30;99.90
15959;DHT22;8078;47.822;9.402;2022-12-08T05:43:37;-0.30;99.90
15959;DHT22;8078;47.822;9.402;2022-12-08T05:46:03;-0.20;99.90
15959;DHT22;8078;47.822;9.402;2022-12-08T05:48:29;-0.20;99.90
15959;DHT22;8078;47.822;9.402;2022-12-08T05:50:55;-0.30;99.90
15959;DHT22;8078;47.822;9.402;2022-12-08T05:53:20;-0.30;99.90
15959;DHT22;8078;47.822;9.402;2022-12-08T05:55:46;-0.30;99.90
15959;DHT22;8078;47.822;9.402;2022-12-08T05:58:17;-0.30;99.90
15959;DHT22;8078;47.822;9.402;2022-12-08T06:00:44;-0.30;99.90
15959;DHT22;8078;47.822;9.402;2022-12-08T06:03:11;-0.30;99.90
15959;DHT22;8078;47.822;9.402;2022-12-08T06:05:37;-0.30;99.90
15959;DHT22;8078;47.822;9.402;2022-12-08T06:08:03;-0.30;99.90
15959;DHT22;8078;47.822;9.402;2022-12-08T06:10:28;-0.30;99.90
15959;DHT22;8078;47.822;9.402;2022-12-08T06:12:54;-0.30;99.90
15959;DHT22;8078;47.822;9.402;2022-12-08T06:15:19;-0.30;99.90
15959;DHT22;8078;47.822;9.402;2022-12-08T06:17:45;-0.20;99.90
15959;DHT22;8078;47.822;9.402;2022-12-08T06:20:11;-0.30;99.90
15959;DHT22;8078;47.822;9.402;2022-12-08T06:22:37;-0.30;99.90
15959;DHT22;8078;47.822;9.402;2022-12-08T06:25:03;-0.30;99.90
15959;DHT22;8078;47.822;9.402;2022-12-08T06:27:28;-0.30;99.90
15959;DHT22;8078;47.822;9.402;2022-12-08T06:29:54;-0.30;99.90
15959;DHT22;8078;47.822;9.402;2022-12-08T06:32:20;-0.30;99.90
15959;DHT22;8078;47.822;9.402;2022-12-08T06:34:46;-0.30;99.90
15959;DHT22;8078;47.822;9.402;2022-12-08T06:37:11;-0.30;99.90
15959;DHT22;8078;47.822;9.402;2022-12-08T06:39:37;-0.30;99.90
15959;DHT22;8078;47.822;9.402;2022-12-08T06:42:02;-0.30;99.90
15959;DHT22;8078;47.822;9.402;2022-12-08T06:44:47;-0.30;99.90
15959;DHT22;8078;47.822;9.402;2022-12-08T06:47:12;-0.30;99.90
15959;DHT22;8078;47.822;9.402;2022-12-08T06:49:38;-0.30;99.90
15959;DHT22;8078;47.822;9.402;2022-12-08T06:52:04;-0.30;99.90
15959;DHT22;8078;47.822;9.402;2022-12-08T06:54:30;-0.30;99.90
15959;DHT22;8078;47.822;9.402;2022-12-08T06:56:55;-0.30;99.90
15959;DHT22;8078;47.822;9.402;2022-12-08T06:59:21;-0.40;99.90
15959;DHT22;8078;47.822;9.402;2022-12-08T07:01:46;-0.40;99.90
15959;DHT22;8078;47.822;9.402;2022-12-08T07:04:12;-0.40;99.90
15959;DHT22;8078;47.822;9.402;2022-12-08T07:06:38;-0.40;99.90
15959;DHT22;8078;47.822;9.402;2022-12-08T07:09:03;-0.40;99.90
15959;DHT22;8078;47.822;9.402;2022-12-08T07:11:29;-0.40;99.90
15959;DHT22;8078;47.822;9.402;2022-12-08T07:13:55;-0.40;99.90
15959;DHT22;8078;47.822;9.402;2022-12-08T07:16:22;-0.50;99.90
15959;DHT22;8078;47.822;9.402;2022-12-08T07:18:48;-0.50;99.90
15959;DHT22;8078;47.822;9.402;2022-12-08T07:21:13;-0.50;99.90
15959;DHT22;8078;47.822;9.402;2022-12-08T07:23:39;-0.50;99.90
15959;DHT22;8078;47.822;9.402;2022-12-08T07:26:07;-0.50;99.90
15959;DHT22;8078;47.822;9.402;2022-12-08T07:28:35;-0.50;99.90
15959;DHT22;8078;47.822;9.402;2022-12-08T07:31:01;-0.40;99.90
15959;DHT22;8078;47.822;9.402;2022-12-08T07:33:27;-0.40;99.90
15959;DHT22;8078;47.822;9.402;2022-12-08T07:35:54;-0.40;99.90
15959;DHT22;8078;47.822;9.402;2022-12-08T07:38:19;-0.40;99.90
15959;DHT22;8078;47.822;9.402;2022-12-08T07:40:45;-0.40;99.90
15959;DHT22;8078;47.822;9.402;2022-12-08T07:43:10;-0.30;99.90
15959;DHT22;8078;47.822;9.402;2022-12-08T07:45:36;-0.40;99.90
15959;DHT22;8078;47.822;9.402;2022-12-08T07:48:01;-0.40;99.90
15959;DHT22;8078;47.822;9.402;2022-12-08T07:50:27;-0.40;99.90
15959;DHT22;8078;47.822;9.402;2022-12-08T07:52:52;-0.30;99.90
15959;DHT22;8078;47.822;9.402;2022-12-08T07:55:18;-0.30;99.90
15959;DHT22;8078;47.822;9.402;2022-12-08T07:57:43;-0.30;99.90
15959;DHT22;8078;47.822;9.402;2022-12-08T08:00:10;-0.30;99.90
15959;DHT22;8078;47.822;9.402;2022-12-08T08:02:35;-0.30;99.90
15959;DHT22;8078;47.822;9.402;2022-12-08T08:05:01;-0.30;99.90
15959;DHT22;8078;47.822;9.402;2022-12-08T08:07:26;-0.20;99.90
15959;DHT22;8078;47.822;9.402;2022-12-08T08:09:52;-0.20;99.90
15959;DHT22;8078;47.822;9.402;2022-12-08T08:12:17;-0.20;99.90
15959;DHT22;8078;47.822;9.402;2022-12-08T08:14:43;-0.20;99.90
15959;DHT22;8078;47.822;9.402;2022-12-08T08:17:09;-0.20;99.90
15959;DHT22;8078;47.822;9.402;2022-12-08T08:19:34;-0.20;99.90
15959;DHT22;8078;47.822;9.402;2022-12-08T08:22:00;-0.20;99.90
15959;DHT22;8078;47.822;9.402;2022-12-08T08:24:25;-0.20;99.90
15959;DHT22;8078;47.822;9.402;2022-12-08T08:26:51;-0.20;99.90
15959;DHT22;8078;47.822;9.402;2022-12-08T08:29:17;-0.20;99.90
15959;DHT22;8078;47.822;9.402;2022-12-08T08:31:43;-0.10;99.90
15959;DHT22;8078;47.822;9.402;2022-12-08T08:34:09;-0.20;99.90
15959;DHT22;8078;47.822;9.402;2022-12-08T08:36:34;-0.10;99.90
15959;DHT22;8078;47.822;9.402;2022-12-08T08:39:00;0.00;99.90
15959;DHT22;8078;47.822;9.402;2022-12-08T08:41:26;-0.10;99.90
15959;DHT22;8078;47.822;9.402;2022-12-08T08:43:52;-0.10;99.90
15959;DHT22;8078;47.822;9.402;2022-12-08T08:46:18;0.00;99.90
15959;DHT22;8078;47.822;9.402;2022-12-08T08:48:44;0.00;99.90
15959;DHT22;8078;47.822;9.402;2022-12-08T08:51:11;0.10;99.90
15959;DHT22;8078;47.822;9.402;2022-12-08T08:53:37;0.10;99.90
15959;DHT22;8078;47.822;9.402;2022-12-08T08:56:08;0.10;99.90
15959;DHT22;8078;47.822;9.402;2022-12-08T08:58:34;0.00;99.90
15959;DHT22;8078;47.822;9.402;2022-12-08T09:01:00;0.20;99.90
15959;DHT22;8078;47.822;9.402;2022-12-08T09:03:25;0.20;99.90
15959;DHT22;8078;47.822;9.402;2022-12-08T09:05:51;0.20;99.90
15959;DHT22;8078;47.822;9.402;2022-12-08T09:08:16;0.20;99.90
15959;DHT22;8078;47.822;9.402;2022-12-08T09:10:42;0.10;99.90
15959;DHT22;8078;47.822;9.402;2022-12-08T09:13:08;0.10;99.90
15959;DHT22;8078;47.822;9.402;2022-12-08T09:15:33;0.00;99.90
15959;DHT22;8078;47.822;9.402;2022-12-08T09:17:59;0.10;99.90
15959;DHT22;8078;47.822;9.402;2022-12-08T09:20:25;0.20;99.90
15959;DHT22;8078;47.822;9.402;2022-12-08T09:22:50;0.20;99.90
15959;DHT22;8078;47.822;9.402;2022-12-08T09:25:16;0.20;99.90
15959;DHT22;8078;47.822;9.402;2022-12-08T09:27:41;0.40;99.90
15959;DHT22;8078;47.822;9.402;2022-12-08T09:30:07;0.50;99.90
15959;DHT22;8078;47.822;9.402;2022-12-08T09:32:33;0.50;99.90
15959;DHT22;8078;47.822;9.402;2022-12-08T09:34:58;0.40;99.90
15959;DHT22;8078;47.822;9.402;2022-12-08T09:37:25;0.50;99.90
15959;DHT22;8078;47.822;9.402;2022-12-08T09:39:51;0.50;99.90
15959;DHT22;8078;47.822;9.402;2022-12-08T09:42:36;0.50;99.90
15959;DHT22;8078;47.822;9.402;2022-12-08T09:45:14;0.40;99.90
15959;DHT22;8078;47.822;9.402;2022-12-08T09:47:54;0.50;99.90
15959;DHT22;8078;47.822;9.402;2022-12-08T09:53:16;0.30;99.90
15959;DHT22;8078;47.822;9.402;2022-12-08T09:55:48;0.40;99.90
15959;DHT22;8078;47.822;9.402;2022-12-08T09:58:43;0.40;99.90
15959;DHT22;8078;47.822;9.402;2022-12-08T10:01:12;0.60;99.90
15959;DHT22;8078;47.822;9.402;2022-12-08T10:03:39;0.60;99.90
15959;DHT22;8078;47.822;9.402;2022-12-08T10:06:20;0.50;99.90
15959;DHT22;8078;47.822;9.402;2022-12-08T10:12:19;0.60;99.90
15959;DHT22;8078;47.822;9.402;2022-12-08T10:15:13;0.50;99.90
15959;DHT22;8078;47.822;9.402;2022-12-08T10:17:45;0.50;99.90
15959;DHT22;8078;47.822;9.402;2022-12-08T10:20:18;0.50;99.90
15959;DHT22;8078;47.822;9.402;2022-12-08T10:23:12;0.50;99.90
15959;DHT22;8078;47.822;9.402;2022-12-08T10:25:44;0.50;99.90
15959;DHT22;8078;47.822;9.402;2022-12-08T10:28:10;0.60;99.90
15959;DHT22;8078;47.822;9.402;2022-12-08T10:30:38;0.60;99.90
15959;DHT22;8078;47.822;9.402;2022-12-08T10:33:04;0.40;99.90
15959;DHT22;8078;47.822;9.402;2022-12-08T10:35:53;0.40;99.90
15959;DHT22;8078;47.822;9.402;2022-12-08T10:40:49;0.40;99.90
15959;DHT22;8078;47.822;9.402;2022-12-08T10:43:20;0.50;99.90
15959;DHT22;8078;47.822;9.402;2022-12-08T10:45:46;0.60;99.90
15959;DHT22;8078;47.822;9.402;2022-12-08T10:50:53;0.70;99.90
15959;DHT22;8078;47.822;9.402;2022-12-08T10:53:27;0.80;99.90
15959;DHT22;8078;47.822;9.402;2022-12-08T11:01:03;0.70;99.90
15959;DHT22;8078;47.822;9.402;2022-12-08T11:03:34;0.60;99.90
15959;DHT22;8078;47.822;9.402;2022-12-08T11:06:10;0.70;99.90
15959;DHT22;8078;47.822;9.402;2022-12-08T11:08:46;0.80;99.90
15959;DHT22;8078;47.822;9.402;2022-12-08T11:11:12;0.50;99.90
15959;DHT22;8078;47.822;9.402;2022-12-08T11:13:40;0.60;99.90
15959;DHT22;8078;47.822;9.402;2022-12-08T11:16:06;0.60;99.90
15959;DHT22;8078;47.822;9.402;2022-12-08T11:18:40;0.70;99.90
15959;DHT22;8078;47.822;9.402;2022-12-08T11:21:17;0.80;99.90
15959;DHT22;8078;47.822;9.402;2022-12-08T11:23:48;0.60;99.90
15959;DHT22;8078;47.822;9.402;2022-12-08T11:28:50;0.70;99.90
15959;DHT22;8078;47.822;9.402;2022-12-08T11:31:31;0.50;99.90
15959;DHT22;8078;47.822;9.402;2022-12-08T11:33:57;0.50;99.90
15959;DHT22;8078;47.822;9.402;2022-12-08T11:36:26;0.60;99.90
15959;DHT22;8078;47.822;9.402;2022-12-08T11:38:56;0.60;99.90
15959;DHT22;8078;47.822;9.402;2022-12-08T11:41:36;0.60;99.90
15959;DHT22;8078;47.822;9.402;2022-12-08T11:49:16;0.70;99.90
15959;DHT22;8078;47.822;9.402;2022-12-08T11:52:02;0.70;99.90
15959;DHT22;8078;47.822;9.402;2022-12-08T11:56:59;0.60;99.90
15959;DHT22;8078;47.822;9.402;2022-12-08T11:59:31;0.50;99.90
15959;DHT22;8078;47.822;9.402;2022-12-08T12:01:58;0.40;99.90
15959;DHT22;8078;47.822;9.402;2022-12-08T12:04:29;0.30;99.90
15959;DHT22;8078;47.822;9.402;2022-12-08T12:07:09;0.30;99.90
15959;DHT22;8078;47.822;9.402;2022-12-08T12:10:02;0.30;99.90
15959;DHT22;8078;47.822;9.402;2022-12-08T12:18:25;0.30;99.90
15959;DHT22;8078;47.822;9.402;2022-12-08T12:26:34;0.90;99.90
15959;DHT22;8078;47.822;9.402;2022-12-08T12:29:12;1.00;99.90
15959;DHT22;8078;47.822;9.402;2022-12-08T12:31:42;0.90;99.90
15959;DHT22;8078;47.822;9.402;2022-12-08T12:34:20;0.80;99.90
15959;DHT22;8078;47.822;9.402;2022-12-08T12:36:57;0.70;99.90
15959;DHT22;8078;47.822;9.402;2022-12-08T12:39:29;0.80;99.90
15959;DHT22;8078;47.822;9.402;2022-12-08T12:41:57;0.80;99.90
15959;DHT22;8078;47.822;9.402;2022-12-08T12:44:36;0.80;99.90
15959;DHT22;8078;47.822;9.402;2022-12-08T12:47:07;0.80;99.90
15959;DHT22;8078;47.822;9.402;2022-12-08T12:57:25;1.10;99.90
15959;DHT22;8078;47.822;9.402;2022-12-08T13:00:07;1.00;99.90
15959;DHT22;8078;47.822;9.402;2022-12-08T13:02:38;1.00;99.90
15959;DHT22;8078;47.822;9.402;2022-12-08T13:05:26;1.20;99.90
15959;DHT22;8078;47.822;9.402;2022-12-08T13:07:56;1.00;99.90
15959;DHT22;8078;47.822;9.402;2022-12-08T13:10:35;1.10;99.90
15959;DHT22;8078;47.822;9.402;2022-12-08T13:13:19;0.90;99.90
15959;DHT22;8078;47.822;9.402;2022-12-08T13:18:22;0.70;99.90
15959;DHT22;8078;47.822;9.402;2022-12-08T13:23:50;0.70;99.90
15959;DHT22;8078;47.822;9.402;2022-12-08T13:29:36;0.50;99.90
15959;DHT22;8078;47.822;9.402;2022-12-08T13:34:39;0.40;99.90
15959;DHT22;8078;47.822;9.402;2022-12-08T13:39:54;0.50;99.90
15959;DHT22;8078;47.822;9.402;2022-12-08T13:42:35;0.50;99.90
15959;DHT22;8078;47.822;9.402;2022-12-08T13:45:29;0.60;99.90
15959;DHT22;8078;47.822;9.402;2022-12-08T13:48:04;0.60;99.90
15959;DHT22;8078;47.822;9.402;2022-12-08T13:50:43;0.70;99.90
15959;DHT22;8078;47.822;9.402;2022-12-08T13:53:17;0.80;99.90
15959;DHT22;8078;47.822;9.402;2022-12-08T13:55:49;0.80;99.90
15959;DHT22;8078;47.822;9.402;2022-12-08T13:58:21;0.90;99.90
15959;DHT22;8078;47.822;9.402;2022-12-08T14:03:56;0.80;99.90
15959;DHT22;8078;47.822;9.402;2022-12-08T14:06:29;0.90;99.90
15959;DHT22;8078;47.822;9.402;2022-12-08T14:08:59;0.80;99.90
15959;DHT22;8078;47.822;9.402;2022-12-08T14:16:42;0.70;99.90
15959;DHT22;8078;47.822;9.402;2022-12-08T14:19:19;0.80;99.90
15959;DHT22;8078;47.822;9.402;2022-12-08T14:21:47;0.90;99.90
15959;DHT22;8078;47.822;9.402;2022-12-08T14:24:14;0.90;99.90
15959;DHT22;8078;47.822;9.402;2022-12-08T14:26:40;0.80;99.90
15959;DHT22;8078;47.822;9.402;2022-12-08T14:29:07;0.70;99.90
15959;DHT22;8078;47.822;9.402;2022-12-08T14:31:34;0.70;99.90
15959;DHT22;8078;47.822;9.402;2022-12-08T14:33:59;0.60;99.90
15959;DHT22;8078;47.822;9.402;2022-12-08T14:36:25;0.70;99.90
15959;DHT22;8078;47.822;9.402;2022-12-08T14:38:54;0.80;99.90
15959;DHT22;8078;47.822;9.402;2022-12-08T14:41:25;0.80;99.90
15959;DHT22;8078;47.822;9.402;2022-12-08T14:44:00;0.70;99.90
15959;DHT22;8078;47.822;9.402;2022-12-08T14:46:26;0.60;99.90
15959;DHT22;8078;47.822;9.402;2022-12-08T14:48:52;0.50;99.90
15959;DHT22;8078;47.822;9.402;2022-12-08T14:54:20;0.60;99.90
15959;DHT22;8078;47.822;9.402;2022-12-08T14:56:54;0.50;99.90
15959;DHT22;8078;47.822;9.402;2022-12-08T15:01:49;0.60;99.90
15959;DHT22;8078;47.822;9.402;2022-12-08T15:04:23;0.70;99.90
15959;DHT22;8078;47.822;9.402;2022-12-08T15:06:52;0.80;99.90
15959;DHT22;8078;47.822;9.402;2022-12-08T15:12:24;0.70;99.90
15959;DHT22;8078;47.822;9.402;2022-12-08T15:17:33;0.50;99.90
15959;DHT22;8078;47.822;9.402;2022-12-08T15:20:00;0.50;99.90
15959;DHT22;8078;47.822;9.402;2022-12-08T15:22:26;0.40;99.90
15959;DHT22;8078;47.822;9.402;2022-12-08T15:24:54;0.40;99.90
15959;DHT22;8078;47.822;9.402;2022-12-08T15:27:22;0.40;99.90
15959;DHT22;8078;47.822;9.402;2022-12-08T15:29:48;0.40;99.90
15959;DHT22;8078;47.822;9.402;2022-12-08T15:32:19;0.40;99.90
15959;DHT22;8078;47.822;9.402;2022-12-08T15:34:45;0.40;99.90
15959;DHT22;8078;47.822;9.402;2022-12-08T15:37:22;0.30;99.90
15959;DHT22;8078;47.822;9.402;2022-12-08T15:39:48;0.30;99.90
15959;DHT22;8078;47.822;9.402;2022-12-08T15:42:14;0.30;99.90
15959;DHT22;8078;47.822;9.402;2022-12-08T15:44:40;0.30;99.90
15959;DHT22;8078;47.822;9.402;2022-12-08T15:47:19;0.30;99.90
15959;DHT22;8078;47.822;9.402;2022-12-08T15:49:46;0.30;99.90
15959;DHT22;8078;47.822;9.402;2022-12-08T15:52:19;0.30;99.90
15959;DHT22;8078;47.822;9.402;2022-12-08T15:54:44;0.30;99.90
15959;DHT22;8078;47.822;9.402;2022-12-08T15:57:22;0.30;99.90
15959;DHT22;8078;47.822;9.402;2022-12-08T15:59:48;0.30;99.90
15959;DHT22;8078;47.822;9.402;2022-12-08T16:02:14;0.30;99.90
15959;DHT22;8078;47.822;9.402;2022-12-08T16:04:40;0.10;99.90
15959;DHT22;8078;47.822;9.402;2022-12-08T16:07:09;0.10;99.90
15959;DHT22;8078;47.822;9.402;2022-12-08T16:09:38;0.20;99.90
15959;DHT22;8078;47.822;9.402;2022-12-08T16:12:09;0.10;99.90
15959;DHT22;8078;47.822;9.402;2022-12-08T16:14:57;0.10;99.90
15959;DHT22;8078;47.822;9.402;2022-12-08T16:17:23;0.10;99.90
15959;DHT22;8078;47.822;9.402;2022-12-08T16:19:49;0.30;99.90
15959;DHT22;8078;47.822;9.402;2022-12-08T16:22:16;0.20;99.90
15959;DHT22;8078;47.822;9.402;2022-12-08T16:24:42;0.10;99.90
15959;DHT22;8078;47.822;9.402;2022-12-08T16:27:14;0.10;99.90
15959;DHT22;8078;47.822;9.402;2022-12-08T16:29:40;0.00;99.90
15959;DHT22;8078;47.822;9.402;2022-12-08T16:32:11;-0.10;99.90
15959;DHT22;8078;47.822;9.402;2022-12-08T16:34:37;-0.10;99.90
15959;DHT22;8078;47.822;9.402;2022-12-08T16:37:03;-0.20;99.90
15959;DHT22;8078;47.822;9.402;2022-12-08T16:39:28;-0.10;99.90
15959;DHT22;8078;47.822;9.402;2022-12-08T16:41:54;-0.20;99.90
15959;DHT22;8078;47.822;9.402;2022-12-08T16:44:40;-0.20;99.90
15959;DHT22;8078;47.822;9.402;2022-12-08T16:47:09;-0.30;99.90
15959;DHT22;8078;47.822;9.402;2022-12-08T16:49:38;-0.30;99.90
15959;DHT22;8078;47.822;9.402;2022-12-08T16:52:04;-0.20;99.90
15959;DHT22;8078;47.822;9.402;2022-12-08T16:54:30;-0.20;99.90
15959;DHT22;8078;47.822;9.402;2022-12-08T16:56:56;-0.30;99.90
15959;DHT22;8078;47.822;9.402;2022-12-08T16:59:21;-0.30;99.90
15959;DHT22;8078;47.822;9.402;2022-12-08T17:01:47;-0.30;99.90
15959;DHT22;8078;47.822;9.402;2022-12-08T17:04:12;-0.30;99.90
15959;DHT22;8078;47.822;9.402;2022-12-08T17:06:38;-0.40;99.90
15959;DHT22;8078;47.822;9.402;2022-12-08T17:09:04;-0.40;99.90
15959;DHT22;8078;47.822;9.402;2022-12-08T17:11:29;-0.50;99.90
15959;DHT22;8078;47.822;9.402;2022-12-08T17:13:58;-0.60;99.90
15959;DHT22;8078;47.822;9.402;2022-12-08T17:16:23;-0.70;99.90
15959;DHT22;8078;47.822;9.402;2022-12-08T17:18:49;-0.70;99.90
15959;DHT22;8078;47.822;9.402;2022-12-08T17:21:16;-0.80;99.90
15959;DHT22;8078;47.822;9.402;2022-12-08T17:23:42;-0.80;99.90
15959;DHT22;8078;47.822;9.402;2022-12-08T17:26:09;-0.90;99.90
15959;DHT22;8078;47.822;9.402;2022-12-08T17:28:34;-1.00;99.90
15959;DHT22;8078;47.822;9.402;2022-12-08T17:31:00;-1.00;99.90
15959;DHT22;8078;47.822;9.402;2022-12-08T17:33:27;-1.10;99.90
15959;DHT22;8078;47.822;9.402;2022-12-08T17:35:53;-1.10;99.90
15959;DHT22;8078;47.822;9.402;2022-12-08T17:38:20;-1.10;99.90
15959;DHT22;8078;47.822;9.402;2022-12-08T17:40:47;-1.10;99.90
15959;DHT22;8078;47.822;9.402;2022-12-08T17:43:13;-1.20;99.90
15959;DHT22;8078;47.822;9.402;2022-12-08T17:45:44;-1.20;99.90